createdAt,value
2019-04-07T00:01:24.353Z,4.80
2019-04-07T00:03:54.943Z,3.40
2019-04-07T00:06:25.835Z,7.80
2019-04-07T00:08:55.861Z,11.20
2019-04-07T00:11:26.829Z,8.80
2019-04-07T00:13:57.907Z,8.80
2019-04-07T00:16:28.277Z,7.80
2019-04-07T00:18:58.556Z,6.00
2019-04-07T00:21:29.267Z,9.00
2019-04-07T00:24:01.746Z,6.00
2019-04-07T00:26:31.315Z,6.80
2019-04-07T00:29:01.666Z,7.00
2019-04-07T00:31:31.991Z,6.40
2019-04-07T00:34:02.790Z,7.00
2019-04-07T00:36:34.161Z,7.00
2019-04-07T00:39:05.946Z,6.60
2019-04-07T00:41:36.446Z,5.80
2019-04-07T00:44:07.113Z,6.20
2019-04-07T00:46:37.915Z,6.00
2019-04-07T00:49:08.325Z,7.00
2019-04-07T00:51:38.688Z,7.20
2019-04-07T00:54:09.384Z,8.20
2019-04-07T00:56:40.225Z,7.40
2019-04-07T00:59:10.866Z,6.40
2019-04-07T01:01:41.417Z,6.00
2019-04-07T01:04:12.222Z,6.20
2019-04-07T01:06:42.656Z,7.00
2019-04-07T01:09:13.446Z,9.40
2019-04-07T01:11:44.254Z,6.40
2019-04-07T01:14:16.024Z,6.40
2019-04-07T01:16:45.973Z,8.80
2019-04-07T01:19:16.716Z,8.00
2019-04-07T01:21:46.999Z,6.60
2019-04-07T01:24:17.676Z,5.80
2019-04-07T01:26:48.342Z,7.00
2019-04-07T01:29:18.855Z,7.20
2019-04-07T01:31:49.451Z,7.60
2019-04-07T01:34:19.887Z,7.40
2019-04-07T01:36:50.143Z,6.00
2019-04-07T01:39:20.548Z,5.80
2019-04-07T01:41:55.305Z,6.20
2019-04-07T01:44:29.932Z,3.00
2019-04-07T01:47:18.131Z,6.40
2019-04-07T01:49:52.811Z,5.00
2019-04-07T01:52:34.099Z,8.20
2019-04-07T01:55:15.516Z,6.75
2019-04-07T01:58:04.111Z,5.80
2019-04-07T02:00:37.058Z,6.25
2019-04-07T02:03:12.166Z,7.40
2019-04-07T02:06:02.609Z,6.40
2019-04-07T02:08:46.317Z,6.80
2019-04-07T02:11:23.966Z,6.60
2019-04-07T02:14:08.667Z,7.60
2019-04-07T02:16:46.562Z,9.20
2019-04-07T02:19:19.007Z,9.20
2019-04-07T02:21:58.300Z,10.00
2019-04-07T02:24:48.872Z,10.00
2019-04-07T02:27:30.669Z,8.80
2019-04-07T02:30:05.995Z,8.80
2019-04-07T02:32:46.527Z,9.80
2019-04-07T02:35:37.777Z,10.00
2019-04-07T02:38:17.687Z,10.40
2019-04-07T02:40:53.410Z,9.00
2019-04-07T02:43:34.778Z,9.60
2019-04-07T02:46:06.793Z,10.00
2019-04-07T02:48:48.835Z,9.80
2019-04-07T02:51:31.852Z,9.20
2019-04-07T02:54:20.689Z,9.40
2019-04-07T02:57:08.403Z,8.20
2019-04-07T02:59:57.776Z,9.80
2019-04-07T03:02:33.437Z,2.40
2019-04-07T03:05:18.729Z,5.00
2019-04-07T03:07:50.573Z,5.40
2019-04-07T03:10:31.534Z,8.40
2019-04-07T03:13:07.328Z,6.80
2019-04-07T03:15:44.326Z,9.00
2019-04-07T03:18:31.803Z,7.20
2019-04-07T03:21:09.785Z,9.40
2019-04-07T03:23:53.844Z,9.00
2019-04-07T03:26:29.532Z,10.80
2019-04-07T03:29:05.309Z,7.00
2019-04-07T03:31:45.952Z,7.00
2019-04-07T03:34:18.434Z,9.00
2019-04-07T03:37:25.853Z,6.80
2019-04-07T03:39:47.386Z,6.20
2019-04-07T03:42:26.073Z,7.00
2019-04-07T03:45:01.351Z,7.20
2019-04-07T03:47:35.961Z,9.00
2019-04-07T03:50:25.648Z,7.20
2019-04-07T03:52:58.381Z,6.40
2019-04-07T03:55:40.723Z,10.40
2019-04-07T03:58:29.882Z,6.00
2019-04-07T04:01:08.203Z,9.80
2019-04-07T04:03:46.078Z,9.00
2019-04-07T04:06:21.850Z,8.40
2019-04-07T04:08:53.723Z,9.00
2019-04-07T04:11:42.561Z,7.80
2019-04-07T04:14:31.317Z,9.00
2019-04-07T04:17:02.115Z,7.20
2019-04-07T04:19:33.601Z,7.80
2019-04-07T04:22:04.130Z,7.20
2019-04-07T04:24:35.079Z,6.00
2019-04-07T04:27:05.446Z,9.60
2019-04-07T04:29:37.349Z,6.00
2019-04-07T04:32:07.770Z,5.80
2019-04-07T04:34:39.001Z,3.60
2019-04-07T04:37:09.511Z,8.60
2019-04-07T04:39:41.038Z,5.40
2019-04-07T04:42:11.985Z,5.00
2019-04-07T04:44:44.183Z,4.40
2019-04-07T04:47:14.669Z,6.20
2019-04-07T04:49:44.883Z,6.80
2019-04-07T04:52:15.665Z,6.80
2019-04-07T04:54:47.379Z,8.20
2019-04-07T04:57:18.184Z,6.80
2019-04-07T04:59:48.534Z,8.60
2019-04-07T05:02:18.955Z,7.60
2019-04-07T05:04:49.740Z,8.40
2019-04-07T05:07:20.913Z,8.60
2019-04-07T05:09:53.859Z,8.80
2019-04-07T05:12:23.204Z,8.20
2019-04-07T05:14:53.654Z,9.00
2019-04-07T05:17:24.287Z,8.40
2019-04-07T05:19:54.986Z,6.80
2019-04-07T05:22:25.703Z,6.00
2019-04-07T05:24:56.664Z,6.00
2019-04-07T05:27:27.658Z,9.00
2019-04-07T05:29:57.922Z,8.20
2019-04-07T05:32:28.704Z,7.60
2019-04-07T05:34:59.593Z,8.00
2019-04-07T05:37:30.126Z,8.60
2019-04-07T05:40:02.651Z,7.40
2019-04-07T05:42:33.040Z,10.40
2019-04-07T05:45:03.158Z,8.00
2019-04-07T05:47:33.948Z,11.00
2019-04-07T05:50:05.502Z,4.00
2019-04-07T05:52:39.564Z,9.20
2019-04-07T05:55:08.930Z,10.40
2019-04-07T05:57:39.902Z,8.80
2019-04-07T06:00:16.330Z,8.80
2019-04-07T06:02:47.111Z,13.40
2019-04-07T06:05:17.795Z,8.60
2019-04-07T06:07:48.944Z,12.80
2019-04-07T06:10:22.348Z,11.60
2019-04-07T06:12:51.510Z,12.80
2019-04-07T06:15:22.981Z,10.80
2019-04-07T06:17:58.787Z,10.60
2019-04-07T06:20:25.416Z,8.60
2019-04-07T06:22:56.381Z,9.80
2019-04-07T06:25:27.310Z,11.00
2019-04-07T06:27:57.834Z,8.80
2019-04-07T06:30:30.267Z,12.00
2019-04-07T06:32:59.660Z,10.60
2019-04-07T06:35:30.100Z,9.40
2019-04-07T06:38:05.254Z,11.40
2019-04-07T06:40:32.325Z,11.00
2019-04-07T06:43:05.243Z,11.60
2019-04-07T06:45:40.819Z,8.80
2019-04-07T06:48:12.236Z,9.00
2019-04-07T06:50:50.779Z,9.00
2019-04-07T06:53:34.861Z,5.00
2019-04-07T06:56:11.037Z,8.00
2019-04-07T06:58:43.040Z,9.60
2019-04-07T07:01:25.734Z,11.20
2019-04-07T07:04:08.605Z,9.20
2019-04-07T07:06:48.256Z,11.20
2019-04-07T07:09:27.781Z,8.20
2019-04-07T07:11:59.492Z,8.60
2019-04-07T07:14:38.477Z,8.80
2019-04-07T07:17:21.610Z,11.40
2019-04-07T07:20:03.545Z,7.00
2019-04-07T07:22:41.835Z,11.00
2019-04-07T07:25:13.249Z,14.60
2019-04-07T07:27:44.478Z,11.40
2019-04-07T07:30:17.480Z,11.80
2019-04-07T07:32:47.445Z,9.80
2019-04-07T07:35:18.024Z,13.60
2019-04-07T07:37:48.611Z,10.40
2019-04-07T07:40:18.746Z,10.20
2019-04-07T07:42:50.956Z,7.40
2019-04-07T07:45:20.888Z,8.60
2019-04-07T07:47:53.211Z,10.40
2019-04-07T07:50:23.301Z,11.20
2019-04-07T07:52:55.020Z,7.00
2019-04-07T07:55:25.298Z,14.00
2019-04-07T07:57:58.929Z,12.00
2019-04-07T08:00:27.670Z,11.20
2019-04-07T08:02:58.285Z,9.20
2019-04-07T08:05:32.975Z,12.00
2019-04-07T08:08:00.878Z,12.40
2019-04-07T08:10:32.145Z,11.00
2019-04-07T08:13:05.079Z,11.80
2019-04-07T08:15:34.664Z,10.60
2019-04-07T08:18:07.658Z,11.20
2019-04-07T08:20:37.383Z,11.20
2019-04-07T08:23:07.899Z,12.40
2019-04-07T08:25:40.068Z,9.80
2019-04-07T08:28:10.386Z,8.60
2019-04-07T08:30:43.928Z,10.20
2019-04-07T08:33:12.707Z,7.80
2019-04-07T08:35:43.572Z,12.60
2019-04-07T08:38:14.007Z,11.00
2019-04-07T08:40:44.553Z,12.80
2019-04-07T08:43:19.685Z,10.60
2019-04-07T08:45:47.548Z,10.80
2019-04-07T08:48:20.353Z,13.20
2019-04-07T08:50:50.598Z,8.40
2019-04-07T08:53:21.266Z,10.60
2019-04-07T08:55:54.373Z,8.00
2019-04-07T08:58:27.455Z,8.00
2019-04-07T09:00:57.187Z,10.00
2019-04-07T09:03:28.008Z,13.40
2019-04-07T09:05:58.771Z,6.60
2019-04-07T09:08:29.548Z,11.00
2019-04-07T09:11:04.743Z,11.80
2019-04-07T09:13:34.869Z,11.00
2019-04-07T09:16:06.494Z,8.80
2019-04-07T09:19:01.828Z,10.60
2019-04-07T09:21:51.730Z,8.60
2019-04-07T09:24:41.878Z,10.00
2019-04-07T09:27:17.112Z,9.20
2019-04-07T09:30:00.009Z,7.60
2019-04-07T09:32:48.621Z,8.00
2019-04-07T09:35:24.140Z,7.80
2019-04-07T09:37:55.145Z,9.20
2019-04-07T09:40:30.632Z,10.20
2019-04-07T09:43:03.139Z,8.80
2019-04-07T09:45:51.861Z,7.00
2019-04-07T09:48:42.974Z,7.40
2019-04-07T09:51:32.012Z,7.00
2019-04-07T09:54:07.509Z,8.00
2019-04-07T09:56:40.674Z,10.80
2019-04-07T09:59:16.761Z,12.20
2019-04-07T10:01:46.565Z,7.40
2019-04-07T10:04:18.436Z,8.80
2019-04-07T10:07:02.638Z,6.60
2019-04-07T10:09:47.336Z,7.40
2019-04-07T10:12:19.690Z,8.80
2019-04-07T10:15:07.595Z,11.00
2019-04-07T10:17:49.563Z,9.20
2019-04-07T10:20:23.133Z,4.40
2019-04-07T10:23:10.799Z,7.20
2019-04-07T10:25:44.451Z,4.40
2019-04-07T10:28:17.602Z,7.40
2019-04-07T10:30:56.722Z,8.60
2019-04-07T10:33:35.756Z,9.40
2019-04-07T10:36:08.092Z,8.00
2019-04-07T10:38:39.921Z,4.60
2019-04-07T10:41:28.296Z,4.80
2019-04-07T10:44:00.036Z,6.60
2019-04-07T10:46:49.050Z,5.00
2019-04-07T10:49:38.118Z,7.60
2019-04-07T10:52:10.223Z,5.40
2019-04-07T10:54:51.323Z,4.80
2019-04-07T10:57:24.370Z,10.00
2019-04-07T11:00:02.377Z,7.20
2019-04-07T11:02:33.971Z,8.00
2019-04-07T11:05:18.589Z,2.00
2019-04-07T11:08:00.435Z,7.20
2019-04-07T11:10:45.277Z,5.80
2019-04-07T11:13:34.336Z,4.00
2019-04-07T11:16:09.308Z,7.00
2019-04-07T11:18:43.946Z,7.00
2019-04-07T11:21:22.555Z,5.80
2019-04-07T11:24:03.934Z,8.40
2019-04-07T11:26:45.457Z,7.80
2019-04-07T11:29:37.717Z,5.80
2019-04-07T11:32:24.853Z,5.60
2019-04-07T11:35:07.107Z,5.40
2019-04-07T11:37:55.980Z,5.40
2019-04-07T11:40:48.985Z,4.40
2019-04-07T11:43:23.833Z,8.80
2019-04-07T11:46:04.653Z,8.40
2019-04-07T11:48:56.018Z,7.00
2019-04-07T11:51:37.915Z,4.40
2019-04-07T11:54:09.852Z,5.80
2019-04-07T11:56:42.012Z,5.40
2019-04-07T11:59:14.777Z,8.00
2019-04-07T12:01:50.121Z,7.40
2019-04-07T12:04:26.576Z,6.80
2019-04-07T12:06:58.424Z,4.20
2019-04-07T12:09:39.682Z,7.20
2019-04-07T12:12:27.800Z,5.00
2019-04-07T12:14:59.953Z,8.20
2019-04-07T12:17:51.237Z,2.80
2019-04-07T12:20:33.585Z,5.00
2019-04-07T12:23:03.596Z,3.60
2019-04-07T12:25:44.841Z,4.20
2019-04-07T12:28:23.152Z,6.20
2019-04-07T12:30:55.407Z,10.00
2019-04-07T12:33:38.542Z,5.40
2019-04-07T12:36:17.282Z,4.60
2019-04-07T12:38:59.193Z,6.20
2019-04-07T12:41:47.540Z,4.00
2019-04-07T12:44:23.411Z,7.00
2019-04-07T12:47:04.856Z,7.80
2019-04-07T12:49:53.116Z,4.40
2019-04-07T12:52:34.210Z,4.00
2019-04-07T12:55:17.854Z,4.60
2019-04-07T12:57:50.046Z,5.40
2019-04-07T13:00:28.882Z,5.00
2019-04-07T13:03:04.564Z,7.00
2019-04-07T13:05:51.900Z,4.00
2019-04-07T13:08:35.748Z,6.20
2019-04-07T13:11:24.585Z,4.00
2019-04-07T13:13:47.050Z,5.80
2019-04-07T13:16:34.796Z,7.60
2019-04-07T13:19:17.684Z,6.60
2019-04-07T13:21:49.489Z,7.00
2019-04-07T13:24:31.078Z,4.20
2019-04-07T13:27:01.903Z,2.00
2019-04-07T13:29:48.259Z,6.60
2019-04-07T13:32:23.984Z,3.60
2019-04-07T13:35:12.215Z,3.20
2019-04-07T13:37:53.404Z,4.00
2019-04-07T13:40:36.190Z,4.20
2019-04-07T13:43:14.522Z,4.80
2019-04-07T13:45:47.007Z,2.00
2019-04-07T13:48:38.538Z,4.80
2019-04-07T13:51:10.950Z,2.00
2019-04-07T13:53:52.366Z,4.80
2019-04-07T13:56:24.396Z,2.80
2019-04-07T13:58:59.788Z,4.60
2019-04-07T14:01:42.183Z,4.80
2019-04-07T14:04:24.162Z,5.00
2019-04-07T14:07:02.488Z,4.40
2019-04-07T14:09:49.632Z,4.00
2019-04-07T14:12:34.507Z,4.80
2019-04-07T14:15:07.531Z,4.00
2019-04-07T14:17:55.796Z,6.20
2019-04-07T14:20:44.104Z,5.20
2019-04-07T14:23:22.947Z,4.20
2019-04-07T14:26:12.322Z,5.20
2019-04-07T14:28:44.397Z,6.20
2019-04-07T14:31:17.547Z,4.80
2019-04-07T14:33:53.494Z,5.00
2019-04-07T14:36:41.566Z,6.80
2019-04-07T14:39:13.914Z,5.00
2019-04-07T14:42:01.025Z,4.20
2019-04-07T14:44:41.215Z,4.40
2019-04-07T14:47:30.507Z,4.80
2019-04-07T14:50:18.967Z,5.00
2019-04-07T14:52:57.803Z,6.00
2019-04-07T14:55:43.150Z,5.00
2019-04-07T14:58:18.732Z,6.40
2019-04-07T15:00:49.106Z,5.00
2019-04-07T15:03:20.262Z,5.00
2019-04-07T15:05:55.173Z,4.00
2019-04-07T15:08:32.918Z,5.20
2019-04-07T15:11:05.746Z,7.60
2019-04-07T15:13:36.429Z,5.80
2019-04-07T15:16:06.602Z,5.00
2019-04-07T15:18:37.098Z,3.40
2019-04-07T15:21:07.950Z,6.00
2019-04-07T15:23:38.873Z,5.40
2019-04-07T15:26:11.972Z,4.60
2019-04-07T15:28:41.792Z,3.80
2019-04-07T15:31:11.904Z,3.00
2019-04-07T15:33:43.515Z,5.00
2019-04-07T15:36:17.432Z,3.80
2019-04-07T15:38:45.565Z,4.20
2019-04-07T15:41:18.233Z,5.80
2019-04-07T15:43:48.828Z,3.00
2019-04-07T15:46:19.611Z,6.00
2019-04-07T15:48:49.935Z,2.60
2019-04-07T15:51:20.164Z,5.00
2019-04-07T15:53:52.020Z,3.00
2019-04-07T15:56:23.966Z,3.00
2019-04-07T15:58:58.227Z,4.20
2019-04-07T16:01:26.860Z,6.00
2019-04-07T16:03:57.199Z,4.60
2019-04-07T16:06:27.999Z,3.80
2019-04-07T16:09:00.190Z,5.60
2019-04-07T16:11:30.615Z,3.80
2019-04-07T16:14:01.533Z,5.00
2019-04-07T16:16:32.872Z,5.00
2019-04-07T16:19:03.013Z,3.80
2019-04-07T16:21:33.537Z,1.20
2019-04-07T16:24:03.964Z,2.60
2019-04-07T16:26:36.985Z,4.60
2019-04-07T16:29:08.073Z,2.60
2019-04-07T16:31:39.038Z,1.80
2019-04-07T16:34:10.322Z,3.00
2019-04-07T16:36:41.305Z,3.20
2019-04-07T16:39:11.636Z,3.00
2019-04-07T16:41:44.219Z,3.00
2019-04-07T16:44:13.524Z,6.00
2019-04-07T16:46:44.453Z,6.60
2019-04-07T16:49:16.895Z,3.40
2019-04-07T16:51:47.230Z,4.80
2019-04-07T16:54:18.532Z,4.20
2019-04-07T16:56:53.001Z,4.20
2019-04-07T16:59:20.872Z,4.80
2019-04-07T17:01:51.337Z,3.40
2019-04-07T17:04:21.441Z,4.40
2019-04-07T17:07:00.942Z,4.20
2019-04-07T17:09:26.158Z,7.20
2019-04-07T17:11:56.744Z,2.60
2019-04-07T17:14:26.974Z,7.60
2019-04-07T17:16:57.983Z,6.60
2019-04-07T17:19:28.928Z,4.00
2019-04-07T17:22:00.734Z,6.20
2019-04-07T17:24:31.203Z,7.00
2019-04-07T17:27:03.000Z,8.80
2019-04-07T17:29:34.231Z,5.80
2019-04-07T17:32:06.086Z,6.40
2019-04-07T17:34:36.842Z,6.80
2019-04-07T17:37:07.252Z,3.20
2019-04-07T17:39:41.927Z,6.40
2019-04-07T17:42:13.091Z,5.60
2019-04-07T17:45:01.550Z,6.40
2019-04-07T17:47:37.068Z,7.40
2019-04-07T17:50:13.396Z,11.20
2019-04-07T17:52:45.490Z,8.40
2019-04-07T17:55:26.189Z,9.20
2019-04-07T17:57:59.829Z,10.20
2019-04-07T18:00:34.529Z,9.20
2019-04-07T18:03:21.848Z,7.20
2019-04-07T18:06:11.164Z,9.40
2019-04-07T18:09:08.014Z,17.60
2019-04-07T18:11:33.954Z,14.60
2019-04-07T18:14:22.367Z,15.00
2019-04-07T18:17:06.653Z,16.20
2019-04-07T18:19:45.162Z,15.80
2019-04-07T18:22:20.451Z,12.60
2019-04-07T18:24:59.608Z,13.60
2019-04-07T18:27:36.291Z,15.60
2019-04-07T18:30:09.801Z,16.60
2019-04-07T18:32:47.814Z,21.40
2019-04-07T18:35:36.620Z,18.20
2019-04-07T18:38:14.491Z,23.40
2019-04-07T18:40:49.503Z,14.20
2019-04-07T18:43:49.042Z,14.80
2019-04-07T18:46:22.558Z,16.60
2019-04-07T18:49:05.940Z,19.20
2019-04-07T18:51:49.271Z,19.80
2019-04-07T18:54:21.406Z,21.20
2019-04-07T18:56:54.836Z,17.40
2019-04-07T18:59:28.069Z,17.60
2019-04-07T19:02:13.165Z,21.60
2019-04-07T19:05:01.876Z,19.20
2019-04-07T19:07:34.658Z,14.60
2019-04-07T19:10:21.640Z,15.00
2019-04-07T19:13:04.589Z,15.80
2019-04-07T19:15:39.656Z,11.40
2019-04-07T19:18:25.953Z,16.40
2019-04-07T19:21:01.073Z,21.80
2019-04-07T19:23:45.652Z,14.40
2019-04-07T19:26:26.771Z,15.20
2019-04-07T19:29:09.189Z,12.60
2019-04-07T19:31:54.244Z,13.40
2019-04-07T19:34:35.576Z,8.20
2019-04-07T19:37:10.683Z,12.00
2019-04-07T19:39:48.987Z,10.40
2019-04-07T19:42:21.878Z,12.00
2019-04-07T19:45:11.242Z,8.20
2019-04-07T19:47:55.275Z,10.40
2019-04-07T19:50:27.443Z,5.60
2019-04-07T19:53:10.118Z,10.40
2019-04-07T19:55:39.559Z,9.80
2019-04-07T19:58:11.890Z,7.40
2019-04-07T20:01:01.796Z,10.40
2019-04-07T20:03:44.679Z,8.00
2019-04-07T20:06:34.037Z,6.80
2019-04-07T20:09:11.604Z,9.80
2019-04-07T20:11:51.459Z,11.00
2019-04-07T20:14:49.259Z,11.00
2019-04-07T20:17:21.591Z,9.60
2019-04-07T20:19:56.249Z,9.80
2019-04-07T20:22:44.349Z,8.00
2019-04-07T20:25:18.504Z,10.20
2019-04-07T20:27:57.297Z,8.00
2019-04-07T20:30:35.504Z,8.20
2019-04-07T20:33:24.797Z,7.00
2019-04-07T20:36:20.124Z,10.00
2019-04-07T20:38:48.940Z,6.20
2019-04-07T20:41:23.994Z,6.00
2019-04-07T20:44:05.493Z,8.00
2019-04-07T20:46:56.801Z,9.20
2019-04-07T20:49:48.098Z,11.80
2019-04-07T20:52:25.110Z,8.40
2019-04-07T20:55:12.088Z,7.20
2019-04-07T20:57:54.086Z,7.20
2019-04-07T21:00:26.517Z,9.20
2019-04-07T21:03:15.099Z,9.20
2019-04-07T21:05:38.520Z,9.00
2019-04-07T21:08:30.188Z,8.20
2019-04-07T21:11:13.086Z,9.20
2019-04-07T21:13:47.177Z,7.60
2019-04-07T21:16:29.830Z,7.80
2019-04-07T21:19:06.816Z,8.40
2019-04-07T21:21:56.478Z,8.60
2019-04-07T21:24:41.077Z,7.40
2019-04-07T21:27:14.252Z,8.00
2019-04-07T21:29:59.064Z,8.00
2019-04-07T21:32:36.936Z,9.40
2019-04-07T21:35:09.346Z,8.80
2019-04-07T21:37:58.279Z,9.00
2019-04-07T21:40:45.916Z,8.80
2019-04-07T21:43:18.264Z,8.80
2019-04-07T21:45:52.769Z,8.60
2019-04-07T21:48:32.701Z,8.00
2019-04-07T21:51:19.537Z,6.60
2019-04-07T21:53:55.164Z,7.20
2019-04-07T21:56:44.222Z,7.00
2019-04-07T21:59:33.692Z,5.80
2019-04-07T22:02:12.338Z,6.40
2019-04-07T22:04:53.059Z,8.00
2019-04-07T22:10:20.738Z,8.00
2019-04-07T22:12:51.944Z,9.20
2019-04-07T22:15:22.591Z,9.00
2019-04-07T22:17:54.142Z,8.20
2019-04-07T22:20:25.063Z,8.80
2019-04-07T22:22:59.123Z,6.20
2019-04-07T22:25:36.179Z,6.20
2019-04-07T22:28:07.595Z,6.40
2019-04-07T22:30:41.256Z,8.00
2019-04-07T22:33:11.021Z,7.00
2019-04-07T22:35:42.748Z,10.00
2019-04-07T22:38:13.150Z,5.20
2019-04-07T22:40:43.995Z,5.20
2019-04-07T22:43:16.680Z,7.40
2019-04-07T22:45:54.966Z,6.80
2019-04-07T22:48:18.424Z,8.60
2019-04-07T22:50:49.658Z,6.20
2019-04-07T22:53:22.556Z,6.80
2019-04-07T22:55:52.657Z,3.40
2019-04-07T22:58:22.938Z,5.40
2019-04-07T23:00:54.295Z,3.00
2019-04-07T23:03:24.634Z,4.20
2019-04-07T23:05:55.480Z,7.20
2019-04-07T23:08:26.480Z,4.40
2019-04-07T23:10:56.913Z,5.20
2019-04-07T23:13:27.931Z,4.80
2019-04-07T23:16:08.773Z,5.00
2019-04-07T23:18:30.618Z,5.20
2019-04-07T23:21:01.135Z,5.00
2019-04-07T23:23:32.224Z,3.60
2019-04-07T23:26:02.400Z,6.20
2019-04-07T23:28:33.669Z,4.00
2019-04-07T23:31:03.791Z,5.80
2019-04-07T23:33:34.801Z,3.40
2019-04-07T23:36:05.872Z,3.60
2019-04-07T23:38:36.885Z,4.60
2019-04-07T23:41:07.096Z,3.20
2019-04-07T23:43:37.623Z,4.80
2019-04-07T23:46:19.669Z,3.00
2019-04-07T23:48:40.273Z,4.00
2019-04-07T23:51:10.541Z,4.80
2019-04-07T23:54:14.409Z,4.80
2019-04-07T23:56:44.979Z,4.00
2019-04-07T23:59:15.449Z,5.80
